Time;durP1;ratioP1;P1;durP2;ratioP2;P2;SDS_P1;SDS_P2;PMS_P1;PMS_P2;Temp;Humidity;BMP_temperature;BMP_pressure;BME280_temperature;BME280_humidity;BME280_pressure;Samples;Min_cycle;Max_cycle;Signal;HPM_P1;HPM_P2
2022/04/22 00:01:25;;;;;;;;;12.50;9.25;;;;;13.63;48.06;99525.16;4997117;28;45350;-69
2022/04/22 00:03:50;;;;;;;;;14.00;10.00;;;;;13.63;48.18;99530.44;4996734;28;45918;-67
2022/04/22 00:06:16;;;;;;;;;10.50;10.50;;;;;13.59;48.63;99525.38;4996878;28;45328;-68
2022/04/22 00:08:42;;;;;;;;;9.50;9.50;;;;;13.57;48.29;99527.28;4995921;28;45325;-66
2022/04/22 00:13:52;;;;;;;;;10.00;9.50;;;;;13.56;48.56;99522.94;4996520;28;45716;-67
2022/04/22 00:16:17;;;;;;;;;9.50;9.50;;;;;13.51;48.81;99526.88;4996465;28;45299;-68
2022/04/22 00:18:43;;;;;;;;;11.50;11.50;;;;;13.48;49.00;99519.16;4996684;28;45310;-66
2022/04/22 00:21:09;;;;;;;;;11.50;11.50;;;;;13.48;48.88;99517.34;4997113;28;45533;-66
2022/04/22 00:23:34;;;;;;;;;10.00;10.00;;;;;13.44;49.01;99527.31;4996241;28;45221;-68
2022/04/22 00:26:00;;;;;;;;;10.25;10.00;;;;;13.41;48.69;99518.69;4996183;28;45183;-67
2022/04/22 00:28:25;;;;;;;;;10.50;10.50;;;;;13.37;49.24;99512.78;4996358;28;45539;-66
2022/04/22 00:30:51;;;;;;;;;12.25;9.75;;;;;13.29;49.09;99508.03;4996408;28;45616;-67
2022/04/22 00:33:17;;;;;;;;;13.25;11.75;;;;;13.33;49.58;99518.38;4995917;28;46406;-67
2022/04/22 00:35:44;;;;;;;;;10.25;8.75;;;;;13.28;49.70;99522.19;4994945;28;45401;-67
2022/04/22 00:38:09;;;;;;;;;10.50;10.50;;;;;13.29;49.80;99517.75;4996590;28;45315;-70
2022/04/22 00:40:35;;;;;;;;;10.25;10.25;;;;;13.23;49.85;99524.31;4996320;28;45688;-70
2022/04/22 00:43:19;;;;;;;;;11.75;11.75;;;;;13.20;49.72;99511.31;4994692;28;47057;-71
2022/04/22 00:45:46;;;;;;;;;12.75;11.00;;;;;13.22;49.76;99517.31;4995982;28;45379;-69
2022/04/22 00:48:12;;;;;;;;;10.50;9.50;;;;;13.19;49.53;99508.75;4995494;28;45425;-69
2022/04/22 00:50:39;;;;;;;;;10.25;10.25;;;;;13.17;49.59;99508.88;4986211;28;45659;-67
2022/04/22 00:53:06;;;;;;;;;7.75;7.75;;;;;13.17;49.83;99519.44;4995929;28;45708;-66
2022/04/22 00:55:32;;;;;;;;;9.25;9.25;;;;;13.14;49.64;99515.19;4995885;28;45389;-67
2022/04/22 00:57:58;;;;;;;;;11.75;11.75;;;;;13.11;50.46;99517.22;4995895;28;45274;-66
2022/04/22 01:00:24;;;;;;;;;15.00;12.50;;;;;13.07;50.38;99513.91;4995468;28;45541;-66
2022/04/22 01:02:50;;;;;;;;;12.25;10.50;;;;;13.02;50.58;99513.38;4995605;28;45376;-67
2022/04/22 01:10:43;;;;;;;;;10.50;10.25;;;;;12.88;50.93;99498.50;4996286;28;45336;-66
2022/04/22 01:13:09;;;;;;;;;10.75;9.25;;;;;12.84;51.49;99497.03;4994411;28;46924;-65
2022/04/22 01:15:37;;;;;;;;;10.50;9.75;;;;;12.78;51.69;99495.63;4995620;28;45250;-65
2022/04/22 01:18:04;;;;;;;;;10.00;10.00;;;;;12.76;52.20;99499.31;4995817;28;45445;-65
2022/04/22 01:20:29;;;;;;;;;11.00;9.00;;;;;12.70;52.02;99495.28;4994437;28;45540;-64
2022/04/22 01:22:54;;;;;;;;;9.75;9.75;;;;;12.65;51.96;99492.94;4995544;28;45411;-64
2022/04/22 01:25:20;;;;;;;;;10.25;9.25;;;;;12.62;52.53;99497.59;4995416;28;45450;-67
2022/04/22 01:27:50;;;;;;;;;12.75;11.00;;;;;12.56;52.17;99490.91;4994642;28;45325;-66
2022/04/22 01:30:20;;;;;;;;;9.25;9.25;;;;;12.55;52.69;99489.22;4996296;28;45435;-66
2022/04/22 01:32:50;;;;;;;;;11.50;11.50;;;;;12.52;52.62;99489.44;4995427;28;47589;-65
2022/04/22 01:35:16;;;;;;;;;11.00;11.00;;;;;12.49;52.65;99487.00;4995663;28;45456;-67
2022/04/22 01:37:43;;;;;;;;;9.00;9.00;;;;;12.42;52.96;99473.38;4995853;28;45357;-66
2022/04/22 01:40:09;;;;;;;;;10.75;9.00;;;;;12.44;52.60;99481.19;4995189;28;45572;-66
2022/04/22 01:42:35;;;;;;;;;11.75;10.25;;;;;12.40;53.05;99475.28;4995339;28;45399;-69
2022/04/22 01:45:00;;;;;;;;;10.25;10.25;;;;;12.41;52.74;99479.59;4995438;28;45369;-68
2022/04/22 01:47:25;;;;;;;;;12.75;10.00;;;;;12.38;53.12;99485.91;4995595;28;45488;-68
2022/04/22 01:49:51;;;;;;;;;10.25;10.25;;;;;12.35;53.21;99478.19;4995881;28;45312;-65
2022/04/22 01:52:16;;;;;;;;;10.75;10.75;;;;;12.31;53.19;99471.44;4995349;28;45385;-68
2022/04/22 01:54:42;;;;;;;;;12.25;11.00;;;;;12.30;53.63;99475.00;4995067;28;45440;-68
2022/04/22 01:57:07;;;;;;;;;10.50;9.50;;;;;12.28;53.15;99474.28;4995401;28;45415;-70
2022/04/22 01:59:32;;;;;;;;;7.75;6.25;;;;;12.25;53.45;99474.47;4995378;28;45616;-67
2022/04/22 02:01:58;;;;;;;;;13.50;10.50;;;;;12.24;53.31;99472.78;4995140;28;45470;-68
2022/04/22 02:04:24;;;;;;;;;10.25;10.00;;;;;12.21;53.09;99468.56;4995006;28;45264;-68
2022/04/22 02:06:49;;;;;;;;;12.50;10.00;;;;;12.19;53.45;99466.97;4995139;28;45310;-69
2022/04/22 02:09:15;;;;;;;;;12.50;10.75;;;;;12.17;53.53;99468.84;4994075;28;45251;-67
2022/04/22 02:11:41;;;;;;;;;13.75;12.75;;;;;12.12;53.66;99464.72;4995114;28;45485;-69
2022/04/22 02:14:06;;;;;;;;;11.00;11.00;;;;;12.06;54.30;99453.72;4994844;28;45317;-68
2022/04/22 02:16:31;;;;;;;;;14.00;12.75;;;;;12.05;53.91;99466.06;4995016;28;45237;-67
2022/04/22 02:18:57;;;;;;;;;14.25;11.00;;;;;12.03;54.32;99462.69;4995329;28;45646;-65
2022/04/22 02:21:23;;;;;;;;;12.25;11.75;;;;;12.00;54.14;99468.16;4994840;28;45474;-67
2022/04/22 02:23:48;;;;;;;;;9.75;9.75;;;;;11.93;54.37;99456.28;4995161;28;45408;-64
2022/04/22 02:26:14;;;;;;;;;12.25;11.00;;;;;11.94;54.13;99461.44;4977517;28;45542;-65
2022/04/22 02:28:39;;;;;;;;;13.25;12.50;;;;;11.91;54.67;99461.63;4977330;28;45231;-67
2022/04/22 02:31:07;;;;;;;;;13.00;11.50;;;;;11.84;54.34;99449.78;4993467;28;47085;-65
2022/04/22 02:33:34;;;;;;;;;13.25;12.75;;;;;11.82;54.68;99452.53;4994476;28;45423;-68
2022/04/22 02:36:00;;;;;;;;;12.50;12.50;;;;;11.77;54.65;99452.00;4994916;28;45271;-69
2022/04/22 02:38:29;;;;;;;;;12.00;12.00;;;;;11.75;54.76;99445.13;4994666;28;45665;-69
2022/04/22 02:46:24;;;;;;;;;15.75;12.75;;;;;11.67;55.23;99449.06;4994433;28;45334;-68
2022/04/22 02:48:51;;;;;;;;;11.25;10.50;;;;;11.64;55.69;99444.00;4994693;28;45345;-67
2022/04/22 02:51:16;;;;;;;;;14.75;12.25;;;;;11.60;55.54;99446.91;4993169;28;46895;-68
2022/04/22 02:53:43;;;;;;;;;14.00;13.00;;;;;11.58;55.83;99440.91;4996401;28;45522;-69
2022/04/22 02:56:09;;;;;;;;;14.25;11.00;;;;;11.56;56.14;99438.38;4997810;28;45354;-69
2022/04/22 02:58:35;;;;;;;;;9.75;9.25;;;;;11.53;55.95;99443.84;4997966;28;45310;-67
2022/04/22 03:01:02;;;;;;;;;13.00;12.00;;;;;11.48;55.69;99432.75;4997569;28;45274;-69
2022/04/22 03:03:28;;;;;;;;;15.00;11.00;;;;;11.49;55.78;99440.53;4997854;28;45305;-69
2022/04/22 03:05:53;;;;;;;;;13.25;11.75;;;;;11.47;55.96;99437.16;4997501;28;45214;-69
2022/04/22 03:08:18;;;;;;;;;11.50;11.50;;;;;11.43;56.19;99435.66;4998139;28;45516;-69
2022/04/22 03:10:44;;;;;;;;;13.25;13.25;;;;;11.40;55.98;99431.44;4997598;28;46302;-69
2022/04/22 03:13:09;;;;;;;;;11.00;10.25;;;;;11.38;56.34;99422.78;4997609;28;45450;-70
2022/04/22 03:15:36;;;;;;;;;14.50;12.25;;;;;11.37;56.30;99430.75;4997665;28;45243;-69
2022/04/22 03:18:02;;;;;;;;;11.00;11.00;;;;;11.33;56.45;99434.53;4997667;28;45550;-68
2022/04/22 03:20:28;;;;;;;;;9.25;9.00;;;;;11.33;56.35;99434.53;4997276;28;46454;-67
2022/04/22 03:22:53;;;;;;;;;13.75;10.75;;;;;11.30;56.26;99437.34;4997460;28;45349;-68
2022/04/22 03:25:20;;;;;;;;;13.25;12.75;;;;;11.23;57.00;99429.00;4997976;28;45333;-67
2022/04/22 03:27:46;;;;;;;;;13.50;10.25;;;;;11.17;56.94;99421.47;4997496;28;45352;-65
2022/04/22 03:30:12;;;;;;;;;11.50;10.50;;;;;11.21;56.69;99428.25;4996993;28;45350;-68
2022/04/22 03:32:38;;;;;;;;;12.25;11.25;;;;;11.18;56.70;99431.06;4996871;28;45261;-66
2022/04/22 03:35:04;;;;;;;;;14.50;12.00;;;;;11.18;56.69;99426.63;4997238;28;45273;-65
2022/04/22 03:37:29;;;;;;;;;13.00;12.25;;;;;11.15;56.90;99424.19;4979597;28;45563;-68
2022/04/22 03:39:55;;;;;;;;;13.50;12.50;;;;;11.13;57.39;99433.09;4979505;28;46872;-66
2022/04/22 03:42:20;;;;;;;;;16.25;14.75;;;;;11.09;57.00;99417.50;4997409;28;45238;-67
2022/04/22 03:44:46;;;;;;;;;13.00;11.75;;;;;11.09;57.52;99421.94;4997257;28;45335;-65
2022/04/22 03:47:11;;;;;;;;;13.00;12.25;;;;;11.06;57.10;99419.50;4997532;28;45321;-64
2022/04/22 03:49:36;;;;;;;;;12.50;12.50;;;;;11.03;57.72;99417.06;4996885;28;45298;-65
2022/04/22 03:52:02;;;;;;;;;12.50;10.50;;;;;11.03;57.72;99423.16;4996893;28;45262;-65
2022/04/22 03:54:27;;;;;;;;;13.00;11.75;;;;;11.01;57.89;99418.94;4997015;28;45394;-66
2022/04/22 03:59:36;;;;;;;;;16.75;12.50;;;;;10.99;57.92;99426.06;4996777;28;45430;-67
2022/04/22 04:02:03;;;;;;;;;11.50;9.75;;;;;10.95;57.71;99417.50;4996588;28;45353;-66
2022/04/22 04:04:29;;;;;;;;;13.00;13.00;;;;;10.95;57.62;99415.72;4996472;28;45767;-68
2022/04/22 04:06:54;;;;;;;;;12.25;12.25;;;;;10.94;57.80;99414.03;4996725;28;45366;-68
2022/04/22 04:17:36;;;;;;;;;10.50;10.50;;;;;10.86;57.80;99416.28;4996491;28;45479;-65
2022/04/22 04:25:30;;;;;;;;;14.00;14.00;;;;;10.80;58.09;99412.22;4996158;28;45581;-68
2022/04/22 04:27:56;;;;;;;;;14.50;14.50;;;;;10.78;58.38;99408.84;4996735;28;45388;-67
2022/04/22 04:30:22;;;;;;;;;15.75;14.25;;;;;10.73;58.41;99399.56;4996495;28;46376;-66
2022/04/22 04:32:47;;;;;;;;;11.50;11.50;;;;;10.72;58.54;99397.88;4996135;28;45256;-69
2022/04/22 04:35:13;;;;;;;;;13.00;13.00;;;;;10.73;58.38;99404.81;4996330;28;45381;-67
2022/04/22 04:37:42;;;;;;;;;15.25;15.25;;;;;10.72;58.84;99401.31;4996243;28;45333;-67
2022/04/22 04:40:09;;;;;;;;;12.00;12.00;;;;;10.69;58.45;99393.63;4995941;28;46633;-66
2022/04/22 04:42:34;;;;;;;;;13.75;13.50;;;;;10.66;58.67;99389.41;4996084;28;45353;-69
2022/04/22 04:45:00;;;;;;;;;14.25;14.25;;;;;10.69;58.18;99390.16;4996063;28;45353;-67
2022/04/22 04:47:25;;;;;;;;;17.00;14.25;;;;;10.64;59.06;99391.28;4996068;28;45464;-67
2022/04/22 04:49:50;;;;;;;;;14.25;13.50;;;;;10.70;58.84;99403.19;4978429;28;51129;-68
2022/04/22 04:52:16;;;;;;;;;13.75;13.75;;;;;10.69;59.07;99398.88;4995979;28;45378;-66
2022/04/22 04:54:41;;;;;;;;;16.50;15.00;;;;;10.69;58.94;99398.88;4995854;28;45381;-70
2022/04/22 04:57:06;;;;;;;;;17.25;15.00;;;;;10.68;58.58;99396.34;4996008;28;45373;-68
2022/04/22 04:59:32;;;;;;;;;15.25;13.75;;;;;10.66;59.09;99399.91;4977895;28;47068;-69
2022/04/22 05:01:57;;;;;;;;;16.25;15.25;;;;;10.62;59.52;99393.16;4995944;28;45325;-69
2022/04/22 05:04:23;;;;;;;;;15.00;15.00;;;;;10.63;59.25;99392.22;4996121;28;45379;-68
2022/04/22 05:06:49;;;;;;;;;11.25;11.25;;;;;10.61;59.60;99388.84;4995946;28;45663;-66
2022/04/22 05:09:14;;;;;;;;;19.25;16.75;;;;;10.62;59.53;99393.16;4995397;28;46170;-66
2022/04/22 05:11:39;;;;;;;;;15.75;15.00;;;;;10.56;59.45;99372.44;4977787;28;46114;-65
2022/04/22 05:14:06;;;;;;;;;12.50;12.50;;;;;10.55;59.45;99376.00;4995583;28;45364;-67
2022/04/22 05:16:32;;;;;;;;;15.00;15.00;;;;;10.55;59.88;99376.00;4994780;28;45563;-67
2022/04/22 05:18:58;;;;;;;;;19.50;16.00;;;;;10.58;59.54;99385.53;4995356;28;46565;-67
2022/04/22 05:21:23;;;;;;;;;16.75;15.25;;;;;10.60;60.13;99383.66;4995595;28;45298;-67
2022/04/22 05:23:49;;;;;;;;;15.25;15.25;;;;;10.49;59.95;99357.97;4995387;28;45352;-67
2022/04/22 05:26:14;;;;;;;;;13.75;13.75;;;;;10.62;60.07;99374.75;4995477;28;45238;-68
2022/04/22 05:28:39;;;;;;;;;13.75;13.75;;;;;10.65;59.34;99384.22;4995202;28;46435;-68
2022/04/22 05:33:50;;;;;;;;;16.50;13.50;;;;;10.66;59.95;99378.88;4995423;28;45412;-66
2022/04/22 05:36:15;;;;;;;;;14.75;13.25;;;;;10.70;59.46;99383.97;4977641;28;45706;-67
2022/04/22 05:38:41;;;;;;;;;16.25;16.25;;;;;10.73;60.02;99378.50;4995272;28;47699;-66
2022/04/22 05:41:06;;;;;;;;;14.75;14.25;;;;;10.77;59.26;99387.91;4995543;28;45227;-69
2022/04/22 05:43:31;;;;;;;;;21.00;20.00;;;;;10.78;59.51;99382.53;4995267;28;45223;-67
2022/04/22 05:45:57;;;;;;;;;18.25;14.75;;;;;10.77;60.14;99385.28;4995554;28;45559;-66
2022/04/22 05:48:22;;;;;;;;;12.50;12.50;;;;;10.77;60.20;99386.09;4994929;28;46205;-67
2022/04/22 05:50:47;;;;;;;;;16.25;15.25;;;;;10.80;59.67;99391.19;4995080;28;45342;-65
2022/04/22 05:53:13;;;;;;;;;14.50;14.50;;;;;10.80;59.85;99379.84;4995360;28;45231;-67
2022/04/22 05:55:38;;;;;;;;;16.25;16.25;;;;;10.89;60.00;99383.66;4995438;28;45669;-66
2022/04/22 05:58:04;;;;;;;;;16.75;16.75;;;;;10.86;59.96;99382.09;4995182;28;46349;-65
2022/04/22 06:00:31;;;;;;;;;20.25;19.25;;;;;10.90;59.72;99394.13;4994822;28;45258;-67
2022/04/22 06:02:57;;;;;;;;;21.25;17.25;;;;;10.92;59.92;99400.13;4995322;28;45467;-67
2022/04/22 06:05:23;;;;;;;;;26.25;22.25;;;;;10.84;60.26;99391.00;4994746;28;45315;-68
2022/04/22 06:10:39;;;;;;;;;15.50;15.50;;;;;11.01;59.51;99411.88;4975381;28;45512;-71
2022/04/22 06:13:06;;;;;;;;;16.75;15.00;;;;;11.05;59.41;99405.47;4976934;28;45318;-69
2022/04/22 06:15:32;;;;;;;;;20.25;17.00;;;;;11.11;59.09;99399.84;4994897;28;45443;-67
2022/04/22 06:17:58;;;;;;;;;18.00;18.00;;;;;11.16;59.18;99406.63;4994886;28;46300;-69
2022/04/22 06:20:24;;;;;;;;;20.25;19.25;;;;;11.22;59.10;99398.34;4994508;28;45480;-70
2022/04/22 06:22:50;;;;;;;;;19.75;16.00;;;;;11.25;59.77;99400.78;4995126;28;45425;-61
2022/04/22 06:25:16;;;;;;;;;16.00;14.50;;;;;11.28;59.37;99399.75;4999026;28;45391;-66
2022/04/22 06:27:42;;;;;;;;;17.75;16.75;;;;;11.33;59.31;99395.91;4995185;28;45417;-63
2022/04/22 06:30:11;;;;;;;;;17.50;14.00;;;;;11.37;59.23;99393.91;4997448;28;45382;-63
2022/04/22 06:32:39;;;;;;;;;20.25;16.25;;;;;11.43;58.46;99388.25;5008139;28;45466;-65
2022/04/22 06:35:06;;;;;;;;;21.00;18.50;;;;;11.48;58.75;99390.59;5004323;28;45628;-66
2022/04/22 06:37:35;;;;;;;;;18.25;15.75;;;;;11.50;58.59;99392.19;5009257;28;45315;-62
2022/04/22 06:45:48;;;;;;;;;22.50;18.00;;;;;11.63;58.81;99394.03;5011833;28;45313;-63
2022/04/22 06:48:30;;;;;;;;;18.00;18.00;;;;;11.62;58.93;99393.22;4971854;28;47427;-64
2022/04/22 06:50:57;;;;;;;;;26.50;22.50;;;;;11.64;58.52;99380.78;5003309;28;45499;-64
2022/04/22 06:53:23;;;;;;;;;17.50;16.75;;;;;11.71;58.66;99389.16;4988600;28;46268;-62
2022/04/22 06:55:50;;;;;;;;;22.75;17.25;;;;;11.79;58.65;99388.66;4978113;28;45695;-64
2022/04/22 06:58:18;;;;;;;;;19.00;17.75;;;;;11.95;58.26;99396.41;5001309;28;45589;-63
2022/04/22 07:00:44;;;;;;;;;16.00;16.00;;;;;12.03;57.85;99393.28;5000178;28;45650;-62
2022/04/22 07:03:11;;;;;;;;;18.75;17.00;;;;;12.08;57.76;99384.16;4996834;28;45468;-63
2022/04/22 07:05:38;;;;;;;;;20.25;18.75;;;;;12.13;58.24;99384.69;4996710;28;45578;-65
2022/04/22 07:08:06;;;;;;;;;18.75;18.50;;;;;12.13;57.92;99397.00;4996819;28;45587;-63
2022/04/22 07:10:35;;;;;;;;;20.00;17.25;;;;;12.17;57.87;99395.03;5004523;28;45303;-63
2022/04/22 07:13:01;;;;;;;;;20.00;16.25;;;;;12.23;57.84;99392.84;5008586;28;45415;-64
2022/04/22 07:15:28;;;;;;;;;21.25;19.00;;;;;12.24;57.61;99386.63;4997042;28;45619;-70
2022/04/22 07:17:54;;;;;;;;;18.00;16.50;;;;;12.31;57.46;99380.94;4996928;28;46513;-64
2022/04/22 07:20:20;;;;;;;;;19.50;18.25;;;;;12.37;57.30;99380.53;4995541;28;45246;-66
2022/04/22 07:22:46;;;;;;;;;21.00;20.00;;;;;12.47;57.00;99380.75;4996567;28;45459;-60
2022/04/22 07:25:14;;;;;;;;;24.75;20.75;;;;;12.50;57.08;99380.53;4996579;28;45453;-63
2022/04/22 07:27:42;;;;;;;;;24.75;21.75;;;;;12.63;56.58;99388.47;4995004;28;45800;-62
2022/04/22 07:30:10;;;;;;;;;12.25;10.25;;;;;12.70;56.40;99385.31;4997062;28;45375;-62
2022/04/22 07:32:37;;;;;;;;;13.25;12.00;;;;;12.68;56.29;99354.72;4995685;28;45667;-61
2022/04/22 07:35:05;;;;;;;;;20.50;19.50;;;;;12.94;56.14;99389.00;4997067;28;45568;-62
2022/04/22 07:37:30;;;;;;;;;20.75;19.50;;;;;13.06;55.58;99389.97;4996847;28;46305;-62
2022/04/22 07:39:56;;;;;;;;;28.75;22.75;;;;;13.18;55.55;99396.16;4995356;28;45401;-63
2022/04/22 07:42:22;;;;;;;;;26.25;24.75;;;;;13.25;55.18;99381.56;4996873;28;45280;-63
2022/04/22 07:47:37;;;;;;;;;22.75;21.00;;;;;13.35;54.79;99384.44;4996675;28;45214;-61
2022/04/22 07:50:07;;;;;;;;;26.50;21.25;;;;;13.37;54.75;99371.94;4996979;28;45293;-63
2022/04/22 07:52:34;;;;;;;;;18.25;18.25;;;;;13.47;54.83;99385.38;4997288;28;45195;-63
2022/04/22 07:55:00;;;;;;;;;19.50;19.00;;;;;13.62;54.58;99375.50;4997131;28;45555;-63
2022/04/22 07:57:27;;;;;;;;;20.75;20.50;;;;;13.76;53.99;99377.97;4996787;28;46505;-65
2022/04/22 07:59:52;;;;;;;;;19.00;19.00;;;;;13.90;53.88;99381.44;4996541;28;45334;-65
2022/04/22 08:02:18;;;;;;;;;20.00;20.00;;;;;13.99;53.75;99373.66;4978666;28;45429;-64
2022/04/22 08:04:44;;;;;;;;;16.25;16.25;;;;;14.09;53.56;99375.63;4996358;28;45384;-64
2022/04/22 08:07:09;;;;;;;;;16.75;15.75;;;;;14.19;53.08;99378.44;4995990;28;46244;-64
2022/04/22 08:09:35;;;;;;;;;18.25;18.25;;;;;14.26;52.42;99387.59;4996028;28;45452;-64
2022/04/22 08:12:01;;;;;;;;;22.00;22.00;;;;;14.28;52.49;99378.56;4996221;28;45380;-66
2022/04/22 08:14:27;;;;;;;;;22.50;21.00;;;;;14.37;52.33;99376.22;4996642;28;45590;-63
2022/04/22 08:16:56;;;;;;;;;20.00;19.75;;;;;14.42;51.90;99377.53;4978460;28;48084;-63
2022/04/22 08:19:21;;;;;;;;;20.50;18.25;;;;;14.50;52.05;99376.97;4996235;28;45319;-64
2022/04/22 08:21:46;;;;;;;;;24.50;20.50;;;;;14.63;52.02;99373.41;4995795;28;48827;-62
2022/04/22 08:24:12;;;;;;;;;15.50;15.50;;;;;14.78;51.91;99374.03;4996199;28;45351;-61
2022/04/22 08:26:38;;;;;;;;;22.25;20.25;;;;;14.86;51.57;99366.38;4995464;28;46308;-62
2022/04/22 08:29:04;;;;;;;;;18.25;17.25;;;;;14.94;50.83;99363.97;4996095;28;45330;-63
2022/04/22 08:31:30;;;;;;;;;21.25;20.50;;;;;15.00;51.46;99360.84;4995686;28;45298;-63
2022/04/22 08:33:58;;;;;;;;;19.75;19.00;;;;;15.14;51.12;99361.56;4996116;28;45493;-62
2022/04/22 08:36:24;;;;;;;;;15.50;14.25;;;;;15.27;50.68;99359.63;4995932;28;47008;-62
2022/04/22 08:38:49;;;;;;;;;15.25;15.00;;;;;15.33;50.57;99351.19;4995993;28;45196;-62
2022/04/22 08:41:20;;;;;;;;;17.00;17.00;;;;;15.52;49.99;99360.28;4995943;28;45251;-63
2022/04/22 08:43:45;;;;;;;;;18.25;17.25;;;;;15.62;49.50;99350.63;4994600;28;45287;-62
2022/04/22 08:49:58;;;;;;;;;17.75;17.75;;;;;15.58;48.99;99354.50;4995470;28;45405;-64
2022/04/22 08:51:43;;;;;;;;;16.75;16.25;;;;;15.55;48.64;99341.50;4994636;28;45345;-63
2022/04/22 08:54:09;;;;;;;;;44.75;33.50;;;;;15.65;48.84;99344.25;4994399;28;45354;-63
2022/04/22 08:56:36;;;;;;;;;26.50;24.00;;;;;15.69;48.17;99343.03;4995630;28;45361;-65
2022/04/22 08:59:01;;;;;;;;;24.25;22.25;;;;;15.79;47.79;99345.75;4995580;28;45432;-63
2022/04/22 09:01:27;;;;;;;;;18.50;17.25;;;;;15.85;47.61;99342.59;4995359;28;45368;-64
2022/04/22 09:03:52;;;;;;;;;17.25;17.25;;;;;15.88;47.08;99342.38;4994369;28;45387;-64
2022/04/22 09:06:20;;;;;;;;;15.50;14.75;;;;;15.96;47.44;99351.53;4995282;28;45475;-63
2022/04/22 09:08:49;;;;;;;;;17.75;15.00;;;;;15.88;46.95;99344.22;4995394;28;45367;-62
2022/04/22 09:11:15;;;;;;;;;17.25;15.50;;;;;15.78;46.86;99341.41;4995378;28;45242;-65
2022/04/22 09:13:40;;;;;;;;;19.25;16.00;;;;;15.79;47.23;99343.09;4995580;28;45564;-63
2022/04/22 09:16:05;;;;;;;;;37.25;33.75;;;;;15.80;47.58;99318.28;4995502;28;45283;-64
2022/04/22 09:18:35;;;;;;;;;16.25;14.50;;;;;16.04;46.67;99335.84;4993972;28;45629;-63
2022/04/22 09:21:06;;;;;;;;;15.50;15.50;;;;;16.17;46.85;99341.78;4995382;28;45736;-65
2022/04/22 09:23:34;;;;;;;;;15.25;14.50;;;;;16.23;45.49;99335.13;4995512;28;45502;-62
2022/04/22 09:26:02;;;;;;;;;17.75;15.25;;;;;16.25;45.57;99345.63;4994970;28;46320;-63
2022/04/22 09:28:27;;;;;;;;;15.00;15.00;;;;;16.32;45.58;99333.50;4994960;28;45332;-62
2022/04/22 09:31:01;;;;;;;;;14.25;14.25;;;;;16.38;45.07;99329.47;4995079;28;45359;-63
2022/04/22 09:33:35;;;;;;;;;10.25;10.25;;;;;16.45;45.03;99334.16;4995227;28;45630;-64
2022/04/22 09:44:24;;;;;;;;;14.25;13.00;;;;;16.60;43.93;99329.38;4980354;28;45269;-63
2022/04/22 09:47:09;;;;;;;;;16.00;16.00;;;;;16.64;43.81;99329.94;4994553;28;46463;-65
2022/04/22 09:49:45;;;;;;;;;15.50;12.25;;;;;16.76;43.33;99334.19;4994725;28;45467;-64
2022/04/22 09:52:11;;;;;;;;;10.50;10.25;;;;;16.89;43.47;99330.47;4994951;28;45367;-64
2022/04/22 09:54:38;;;;;;;;;26.50;19.75;;;;;16.97;43.26;99311.22;4995408;28;45554;-64
2022/04/22 09:57:04;;;;;;;;;12.25;12.25;;;;;17.04;43.02;99321.22;4994788;28;46497;-64
2022/04/22 09:59:35;;;;;;;;;22.00;20.25;;;;;17.09;43.01;99320.78;4994355;28;45397;-63
2022/04/22 10:02:00;;;;;;;;;31.25;28.50;;;;;17.28;42.94;99320.00;4995768;28;45364;-64
2022/04/22 10:04:28;;;;;;;;;15.25;15.25;;;;;17.44;42.25;99322.13;4998628;28;45527;-62
2022/04/22 10:06:56;;;;;;;;;10.00;10.00;;;;;17.50;41.48;99318.09;4998043;28;45730;-63
2022/04/22 10:09:22;;;;;;;;;12.75;11.75;;;;;17.51;41.85;99317.13;4997738;28;45933;-64
2022/04/22 10:11:48;;;;;;;;;11.75;11.75;;;;;17.44;40.82;99322.13;4998269;28;45441;-64
2022/04/22 10:14:15;;;;;;;;;9.00;9.00;;;;;17.37;41.19;99313.88;4998166;28;45440;-62
2022/04/22 10:16:42;;;;;;;;;19.75;16.25;;;;;17.41;40.68;99313.59;4998061;28;45408;-63
2022/04/22 10:19:09;;;;;;;;;13.00;12.00;;;;;17.45;40.93;99315.84;4998020;28;45287;-62
2022/04/22 10:21:36;;;;;;;;;13.50;12.50;;;;;17.62;40.68;99305.53;4997659;28;45341;-61
2022/04/22 10:24:02;;;;;;;;;9.75;9.75;;;;;17.69;39.34;99308.47;4997986;28;45448;-62
2022/04/22 10:26:28;;;;;;;;;12.25;11.00;;;;;17.64;40.32;99307.06;4979629;28;48113;-63
2022/04/22 10:28:55;;;;;;;;;11.75;10.00;;;;;17.80;39.87;99301.19;4997491;28;45372;-64
2022/04/22 10:31:22;;;;;;;;;14.00;14.00;;;;;17.70;38.82;99283.53;4997605;28;45385;-65
2022/04/22 10:33:48;;;;;;;;;17.25;15.50;;;;;17.81;38.89;99299.38;4997886;28;45396;-62
2022/04/22 10:36:16;;;;;;;;;15.50;9.75;;;;;17.86;39.28;99291.81;4996913;28;45512;-62
2022/04/22 10:38:44;;;;;;;;;9.75;8.50;;;;;17.98;39.07;99289.00;4997727;28;45432;-63
2022/04/22 10:41:16;;;;;;;;;12.50;10.50;;;;;18.08;38.29;99295.22;4996342;28;45489;-62
2022/04/22 10:43:42;;;;;;;;;11.00;10.25;;;;;18.03;37.48;99292.13;4998037;28;45354;-63
2022/04/22 10:49:15;;;;;;;;;10.00;10.00;;;;;17.92;37.81;99291.25;4997161;28;45313;-64
2022/04/22 10:52:02;;;;;;;;;8.25;8.25;;;;;17.90;38.64;99295.03;4997948;28;45467;-62
2022/04/22 10:54:52;;;;;;;;;11.25;9.50;;;;;18.05;37.48;99291.00;4997492;28;45498;-63
2022/04/22 10:57:20;;;;;;;;;7.75;7.75;;;;;18.21;36.79;99282.44;4997254;28;46516;-63
2022/04/22 11:00:07;;;;;;;;;10.25;8.75;;;;;18.31;36.49;99290.38;4995501;28;45380;-64
2022/04/22 11:02:40;;;;;;;;;15.50;12.50;;;;;18.35;37.61;99275.81;4979173;28;45254;-62
2022/04/22 11:05:20;;;;;;;;;12.00;11.00;;;;;18.44;37.97;99276.78;4997208;28;45554;-63
2022/04/22 11:07:51;;;;;;;;;7.00;7.00;;;;;18.53;38.08;99272.38;4996850;28;45353;-64
2022/04/22 11:10:49;;;;;;;;;10.25;9.50;;;;;18.56;37.34;99273.94;4996886;28;45317;-64
2022/04/22 11:13:40;;;;;;;;;9.50;9.50;;;;;18.59;37.48;99268.31;4996038;28;45377;-64
2022/04/22 11:16:07;;;;;;;;;12.50;10.50;;;;;18.73;36.69;99267.00;4993894;28;45455;-65
2022/04/22 11:18:34;;;;;;;;;10.00;8.00;;;;;18.76;36.63;99267.53;4996405;28;45450;-65
2022/04/22 11:21:04;;;;;;;;;9.25;9.25;;;;;18.73;36.26;99275.81;4996144;28;45326;-66
2022/04/22 11:23:39;;;;;;;;;8.75;8.75;;;;;18.61;36.15;99275.19;4996962;28;45476;-65
2022/04/22 11:26:05;;;;;;;;;8.50;8.25;;;;;18.59;37.03;99270.97;4995305;28;45534;-64
2022/04/22 11:28:35;;;;;;;;;9.00;9.00;;;;;18.65;37.18;99265.91;4996552;28;45504;-63
2022/04/22 11:31:11;;;;;;;;;9.50;8.50;;;;;18.78;37.43;99260.25;4996238;28;45241;-65
2022/04/22 11:33:57;;;;;;;;;11.50;11.50;;;;;18.98;36.76;99252.16;4996210;28;45553;-65
2022/04/22 11:36:24;;;;;;;;;8.25;7.75;;;;;19.04;36.61;99264.91;4996665;28;45417;-63
2022/04/22 11:38:51;;;;;;;;;10.00;9.00;;;;;19.03;36.16;99254.41;4995007;28;48345;-63
2022/04/22 11:41:17;;;;;;;;;10.50;8.50;;;;;19.05;36.12;99255.09;4996116;28;45195;-64
2022/04/22 11:43:43;;;;;;;;;9.75;9.00;;;;;19.02;36.76;99253.56;4996738;28;45280;-64
2022/04/22 11:46:11;;;;;;;;;19.75;17.50;;;;;19.03;36.56;99231.25;4996955;28;45327;-62
2022/04/22 11:48:50;;;;;;;;;9.25;9.25;;;;;19.31;36.63;99249.03;4996101;28;45475;-63
2022/04/22 11:51:20;;;;;;;;;10.75;10.25;;;;;19.42;36.38;99247.00;4996391;28;45296;-64
2022/04/22 11:53:51;;;;;;;;;7.50;7.50;;;;;19.63;35.98;99250.38;4996851;28;45333;-63
2022/04/22 11:56:19;;;;;;;;;17.50;15.25;;;;;19.67;36.06;99252.56;4996784;28;45967;-64
2022/04/22 11:58:44;;;;;;;;;11.50;10.00;;;;;19.70;36.39;99246.91;4996290;28;46508;-64
2022/04/22 12:06:42;;;;;;;;;9.00;8.50;;;;;19.89;35.57;99242.38;4996154;28;45297;-64
2022/04/22 12:09:07;;;;;;;;;12.25;9.50;;;;;19.91;35.62;99250.28;4994486;28;47928;-63
2022/04/22 12:11:42;;;;;;;;;12.25;12.25;;;;;19.90;35.72;99240.59;4995608;28;45273;-62
2022/04/22 12:14:11;;;;;;;;;9.50;9.50;;;;;19.81;35.57;99232.50;4995929;28;45349;-65
2022/04/22 12:16:38;;;;;;;;;15.25;13.50;;;;;19.83;35.62;99237.66;4996225;28;45556;-64
2022/04/22 12:19:06;;;;;;;;;13.00;12.00;;;;;19.78;35.96;99232.81;4996010;28;45748;-62
2022/04/22 12:21:36;;;;;;;;;13.00;11.25;;;;;19.65;36.50;99225.19;4994570;28;45357;-63
2022/04/22 12:24:02;;;;;;;;;11.75;10.75;;;;;19.62;35.39;99225.50;4996132;28;45286;-63